createdAt,value
2019-01-29T00:01:46.695Z,2.60
2019-01-29T00:04:14.539Z,2.40
2019-01-29T00:06:42.446Z,2.80
2019-01-29T00:09:10.311Z,2.03
2019-01-29T00:11:38.110Z,2.00
2019-01-29T00:14:06.003Z,2.23
2019-01-29T00:16:34.109Z,1.87
2019-01-29T00:19:01.936Z,2.20
2019-01-29T00:21:29.721Z,1.73
2019-01-29T00:23:57.594Z,1.90
2019-01-29T00:26:25.445Z,1.40
2019-01-29T00:28:53.327Z,1.62
2019-01-29T00:31:22.895Z,1.80
2019-01-29T00:33:50.952Z,1.50
2019-01-29T00:36:18.824Z,1.93
2019-01-29T00:38:46.742Z,2.00
2019-01-29T00:41:14.697Z,2.30
2019-01-29T00:43:42.601Z,1.60
2019-01-29T00:46:10.511Z,2.23
2019-01-29T00:48:38.339Z,1.67
2019-01-29T00:51:06.186Z,1.80
2019-01-29T00:53:34.127Z,2.20
2019-01-29T00:56:02.071Z,1.50
2019-01-29T00:58:29.858Z,1.90
2019-01-29T01:00:57.669Z,1.90
2019-01-29T01:03:25.543Z,1.77
2019-01-29T01:05:53.452Z,2.07
2019-01-29T01:08:21.322Z,2.23
2019-01-29T01:10:49.195Z,1.73
2019-01-29T01:13:17.058Z,1.70
2019-01-29T01:15:44.863Z,1.80
2019-01-29T01:18:12.661Z,1.90
2019-01-29T01:20:40.563Z,1.80
2019-01-29T01:23:08.401Z,2.10
2019-01-29T01:25:36.281Z,2.17
2019-01-29T01:28:04.322Z,2.10
2019-01-29T01:30:32.206Z,2.13
2019-01-29T01:33:00.075Z,2.03
2019-01-29T01:35:28.151Z,1.90
2019-01-29T01:37:55.979Z,2.13
2019-01-29T01:40:24.278Z,1.77
2019-01-29T01:42:52.084Z,2.17
2019-01-29T01:45:19.989Z,2.10
2019-01-29T01:47:47.879Z,2.30
2019-01-29T01:50:15.669Z,2.07
2019-01-29T01:52:43.492Z,2.17
2019-01-29T01:55:12.243Z,2.20
2019-01-29T01:57:40.037Z,2.67
2019-01-29T02:00:09.198Z,2.00
2019-01-29T02:02:37.034Z,2.33
2019-01-29T02:05:05.528Z,2.10
2019-01-29T02:07:33.447Z,2.40
2019-01-29T02:10:01.279Z,2.13
2019-01-29T02:12:29.143Z,2.40
2019-01-29T02:14:56.980Z,2.40
2019-01-29T02:17:24.767Z,2.23
2019-01-29T02:19:52.649Z,2.20
2019-01-29T02:22:21.339Z,2.33
2019-01-29T02:24:49.197Z,2.50
2019-01-29T02:27:17.013Z,2.23
2019-01-29T02:29:44.832Z,2.40
2019-01-29T02:32:12.626Z,2.10
2019-01-29T02:34:40.473Z,2.60
2019-01-29T02:37:08.303Z,2.77
2019-01-29T02:39:36.088Z,3.03
2019-01-29T02:42:03.987Z,2.80
2019-01-29T02:44:31.871Z,2.70
2019-01-29T02:46:59.721Z,2.90
2019-01-29T02:49:27.707Z,2.70
2019-01-29T02:51:55.588Z,2.70
2019-01-29T02:54:23.526Z,2.93
2019-01-29T02:56:51.434Z,2.10
2019-01-29T02:59:19.385Z,2.87
2019-01-29T03:01:47.380Z,2.97
2019-01-29T03:04:15.280Z,3.43
2019-01-29T03:06:43.167Z,2.83
2019-01-29T03:09:11.001Z,2.80
2019-01-29T03:11:38.838Z,3.00
2019-01-29T03:14:06.774Z,3.33
2019-01-29T03:16:34.688Z,2.97
2019-01-29T03:19:02.499Z,2.83
2019-01-29T03:21:31.618Z,2.63
2019-01-29T03:23:59.689Z,3.10
2019-01-29T03:26:27.505Z,3.10
2019-01-29T03:28:55.364Z,2.80
2019-01-29T03:31:23.184Z,2.87
2019-01-29T03:33:51.027Z,2.73
2019-01-29T03:36:18.875Z,2.73
2019-01-29T03:38:46.768Z,2.80
2019-01-29T03:41:14.612Z,2.90
2019-01-29T03:43:42.512Z,3.20
2019-01-29T03:46:10.310Z,2.97
2019-01-29T03:48:38.125Z,2.83
2019-01-29T03:51:06.053Z,3.33
2019-01-29T03:53:38.227Z,3.00
2019-01-29T03:56:03.609Z,2.53
2019-01-29T03:58:31.483Z,2.90
2019-01-29T04:00:59.346Z,2.83
2019-01-29T04:03:29.937Z,3.03
2019-01-29T04:05:57.759Z,2.90
2019-01-29T04:08:25.727Z,2.90
2019-01-29T04:10:53.578Z,2.63
2019-01-29T04:13:21.391Z,2.87
2019-01-29T04:15:49.410Z,3.27
2019-01-29T04:18:17.325Z,3.33
2019-01-29T04:20:45.162Z,2.77
2019-01-29T04:23:13.039Z,3.43
2019-01-29T04:25:40.887Z,3.53
2019-01-29T04:28:08.826Z,3.20
2019-01-29T04:30:36.699Z,3.43
2019-01-29T04:33:04.520Z,3.40
2019-01-29T04:35:32.359Z,3.20
2019-01-29T04:38:01.387Z,2.83
2019-01-29T04:40:29.229Z,3.20
2019-01-29T04:42:57.083Z,3.40
2019-01-29T04:45:25.016Z,3.27
2019-01-29T04:47:52.955Z,3.90
2019-01-29T04:50:21.624Z,3.07
2019-01-29T04:52:49.500Z,4.03
2019-01-29T04:55:17.627Z,4.83
2019-01-29T04:57:45.437Z,2.97
2019-01-29T05:00:14.706Z,3.13
2019-01-29T05:02:42.570Z,3.07
2019-01-29T05:05:10.609Z,3.30
2019-01-29T05:07:38.453Z,3.00
2019-01-29T05:10:07.374Z,2.83
2019-01-29T05:12:35.222Z,3.00
2019-01-29T05:15:03.056Z,3.20
2019-01-29T05:17:30.913Z,3.27
2019-01-29T05:19:58.733Z,3.53
2019-01-29T05:22:26.524Z,3.30
2019-01-29T05:24:54.594Z,2.83
2019-01-29T05:27:22.773Z,2.50
2019-01-29T05:29:50.593Z,2.70
2019-01-29T05:32:18.428Z,2.90
2019-01-29T05:34:46.254Z,3.27
2019-01-29T05:37:14.063Z,2.93
2019-01-29T05:39:42.254Z,2.90
2019-01-29T05:42:11.694Z,3.03
2019-01-29T05:44:39.496Z,3.23
2019-01-29T05:47:07.353Z,2.43
2019-01-29T05:49:35.230Z,3.27
2019-01-29T05:52:03.221Z,2.87
2019-01-29T05:54:31.105Z,3.13
2019-01-29T05:56:58.889Z,2.73
2019-01-29T05:59:26.733Z,2.87
2019-01-29T06:01:54.626Z,2.90
2019-01-29T06:04:22.514Z,2.80
2019-01-29T06:06:50.443Z,3.20
2019-01-29T06:09:18.265Z,2.70
2019-01-29T06:11:46.270Z,3.30
2019-01-29T06:14:14.147Z,2.80
2019-01-29T06:16:41.996Z,2.90
2019-01-29T06:19:10.049Z,2.83
2019-01-29T06:21:38.020Z,2.83
2019-01-29T06:24:06.033Z,3.20
2019-01-29T06:26:33.890Z,3.40
2019-01-29T06:29:01.767Z,3.07
2019-01-29T06:31:29.559Z,3.20
2019-01-29T06:33:57.476Z,2.80
2019-01-29T06:36:25.375Z,2.90
2019-01-29T06:38:53.188Z,3.40
2019-01-29T06:41:21.039Z,3.23
2019-01-29T06:43:49.081Z,3.70
2019-01-29T06:46:17.010Z,3.30
2019-01-29T06:48:44.839Z,4.20
2019-01-29T06:51:12.687Z,3.77
2019-01-29T06:53:40.510Z,3.93
2019-01-29T06:56:08.287Z,3.83
2019-01-29T06:58:36.241Z,4.13
2019-01-29T07:01:04.057Z,3.97
2019-01-29T07:03:31.940Z,3.90
2019-01-29T07:05:59.961Z,4.37
2019-01-29T07:08:27.803Z,4.77
2019-01-29T07:10:55.771Z,5.10
2019-01-29T07:13:23.679Z,5.90
2019-01-29T07:16:00.925Z,5.83
2019-01-29T07:18:42.175Z,5.40
2019-01-29T07:21:10.890Z,5.50
2019-01-29T07:23:38.752Z,6.07
2019-01-29T07:26:06.617Z,5.83
2019-01-29T07:28:34.835Z,5.30
2019-01-29T07:31:02.832Z,6.00
2019-01-29T07:33:30.773Z,5.13
2019-01-29T07:35:58.604Z,5.33
2019-01-29T07:38:26.490Z,5.67
2019-01-29T07:40:54.368Z,6.03
2019-01-29T07:43:22.209Z,5.30
2019-01-29T07:45:50.401Z,5.53
2019-01-29T07:48:18.246Z,5.23
2019-01-29T07:50:46.060Z,5.10
2019-01-29T07:53:13.976Z,5.20
2019-01-29T07:55:41.822Z,4.90
2019-01-29T07:58:09.647Z,4.87
2019-01-29T08:00:37.466Z,4.60
2019-01-29T08:03:05.379Z,3.87
2019-01-29T08:05:33.504Z,3.77
2019-01-29T08:08:01.368Z,3.90
2019-01-29T08:10:29.325Z,4.53
2019-01-29T08:13:00.313Z,4.43
2019-01-29T08:15:28.280Z,4.40
2019-01-29T08:17:56.110Z,3.87
2019-01-29T08:20:23.956Z,4.20
2019-01-29T08:22:52.477Z,3.53
2019-01-29T08:25:21.626Z,3.60
2019-01-29T08:27:49.536Z,4.00
2019-01-29T08:30:17.435Z,3.53
2019-01-29T08:32:45.368Z,4.37
2019-01-29T08:35:13.726Z,3.87
2019-01-29T08:37:41.935Z,4.30
2019-01-29T08:40:09.828Z,4.10
2019-01-29T08:42:38.413Z,4.27
2019-01-29T08:45:07.952Z,4.03
2019-01-29T08:47:35.800Z,4.37
2019-01-29T08:50:03.793Z,4.63
2019-01-29T08:52:31.663Z,4.63
2019-01-29T08:54:59.501Z,5.60
2019-01-29T08:57:27.463Z,4.70
2019-01-29T08:59:55.416Z,4.73
2019-01-29T09:02:23.416Z,4.97
2019-01-29T09:04:51.356Z,4.13
2019-01-29T09:07:19.170Z,3.80
2019-01-29T09:09:47.068Z,3.60
2019-01-29T09:12:15.010Z,3.60
2019-01-29T09:14:42.953Z,3.70
2019-01-29T09:17:10.788Z,4.00
2019-01-29T09:19:38.673Z,3.30
2019-01-29T09:22:06.741Z,3.20
2019-01-29T09:24:34.620Z,3.17
2019-01-29T09:27:05.483Z,3.70
2019-01-29T09:29:34.421Z,3.33
2019-01-29T09:32:03.148Z,3.63
2019-01-29T09:34:30.995Z,3.23
2019-01-29T09:36:58.780Z,3.27
2019-01-29T09:39:26.720Z,3.27
2019-01-29T09:41:54.619Z,3.30
2019-01-29T09:44:22.416Z,3.77
2019-01-29T09:46:50.233Z,3.20
2019-01-29T09:49:18.031Z,3.27
2019-01-29T09:51:46.021Z,2.90
2019-01-29T09:54:13.816Z,3.60
2019-01-29T09:56:41.993Z,3.50
2019-01-29T09:59:09.794Z,3.30
2019-01-29T10:01:37.613Z,3.27
2019-01-29T10:04:05.484Z,3.53
2019-01-29T10:06:33.435Z,3.50
2019-01-29T10:09:01.240Z,3.30
2019-01-29T10:11:29.137Z,3.50
2019-01-29T10:13:56.927Z,3.60
2019-01-29T10:16:24.761Z,3.53
2019-01-29T10:18:52.568Z,3.50
2019-01-29T10:21:20.627Z,3.63
2019-01-29T10:23:48.420Z,3.20
2019-01-29T10:26:16.263Z,3.40
2019-01-29T10:28:44.129Z,3.50
2019-01-29T10:31:12.148Z,3.70
2019-01-29T10:33:40.124Z,3.20
2019-01-29T10:36:07.910Z,3.43
2019-01-29T10:38:35.960Z,3.40
2019-01-29T10:41:04.023Z,3.90
2019-01-29T10:43:31.994Z,3.50
2019-01-29T10:45:59.772Z,3.33
2019-01-29T10:48:27.801Z,4.50
2019-01-29T10:50:55.603Z,2.87
2019-01-29T10:53:23.545Z,3.50
2019-01-29T10:55:51.395Z,3.13
2019-01-29T10:58:19.200Z,3.30
2019-01-29T11:00:47.123Z,3.80
2019-01-29T11:03:15.058Z,3.80
2019-01-29T11:05:42.854Z,3.40
2019-01-29T11:08:10.699Z,3.70
2019-01-29T11:10:38.543Z,4.27
2019-01-29T11:13:07.412Z,3.77
2019-01-29T11:15:36.417Z,3.90
2019-01-29T11:18:05.240Z,3.53
2019-01-29T11:20:33.187Z,3.90
2019-01-29T11:23:01.072Z,4.20
2019-01-29T11:25:29.104Z,4.27
2019-01-29T11:27:56.972Z,3.60
2019-01-29T11:30:26.723Z,3.83
2019-01-29T11:32:54.562Z,3.13
2019-01-29T11:35:22.772Z,3.93
2019-01-29T11:37:50.660Z,3.57
2019-01-29T11:40:19.510Z,3.57
2019-01-29T11:42:47.364Z,3.50
2019-01-29T11:45:17.165Z,3.57
2019-01-29T11:47:44.961Z,3.40
2019-01-29T11:50:12.856Z,3.20
2019-01-29T11:52:40.954Z,3.93
2019-01-29T11:55:08.866Z,3.73
2019-01-29T11:57:36.861Z,3.70
2019-01-29T12:00:05.983Z,2.97
2019-01-29T12:02:33.849Z,3.83
2019-01-29T12:05:01.734Z,3.77
2019-01-29T12:07:29.802Z,3.80
2019-01-29T12:09:57.641Z,3.63
2019-01-29T12:12:25.545Z,4.10
2019-01-29T12:14:53.464Z,4.10
2019-01-29T12:17:21.293Z,4.00
2019-01-29T12:19:49.481Z,3.80
2019-01-29T12:22:17.473Z,3.77
2019-01-29T12:24:45.673Z,3.33
2019-01-29T12:27:13.811Z,3.40
2019-01-29T12:29:41.711Z,3.83
2019-01-29T12:32:09.648Z,3.80
2019-01-29T12:34:37.512Z,3.83
2019-01-29T12:37:05.620Z,3.50
2019-01-29T12:39:35.978Z,4.40
2019-01-29T12:42:03.993Z,3.63
2019-01-29T12:44:31.889Z,3.63
2019-01-29T12:46:59.785Z,3.47
2019-01-29T12:49:27.696Z,4.03
2019-01-29T12:52:17.703Z,3.93
2019-01-29T12:54:45.530Z,3.50
2019-01-29T12:57:13.375Z,3.50
2019-01-29T12:59:41.253Z,3.87
2019-01-29T13:02:09.133Z,3.60
2019-01-29T13:04:38.536Z,3.37
2019-01-29T13:07:06.559Z,3.83
2019-01-29T13:09:34.408Z,3.33
2019-01-29T13:12:02.308Z,3.50
2019-01-29T13:14:31.483Z,3.77
2019-01-29T13:16:59.349Z,3.43
2019-01-29T13:19:27.301Z,3.23
2019-01-29T13:21:55.235Z,3.80
2019-01-29T13:24:23.103Z,2.83
2019-01-29T13:26:50.942Z,3.40
2019-01-29T13:29:18.876Z,3.40
2019-01-29T13:31:46.821Z,3.40
2019-01-29T13:34:14.842Z,3.63
2019-01-29T13:36:42.718Z,3.30
2019-01-29T13:39:11.124Z,3.13
2019-01-29T13:41:39.009Z,3.53
2019-01-29T13:44:09.893Z,3.40
2019-01-29T13:46:38.024Z,3.87
2019-01-29T13:49:05.853Z,3.97
2019-01-29T13:51:33.786Z,4.13
2019-01-29T13:54:01.880Z,4.50
2019-01-29T13:56:38.559Z,4.53
2019-01-29T13:59:01.912Z,4.83
2019-01-29T14:01:35.856Z,4.70
2019-01-29T14:04:13.372Z,10.03
2019-01-29T14:06:43.908Z,5.07
2019-01-29T14:09:14.259Z,4.60
2019-01-29T14:11:42.295Z,5.10
2019-01-29T14:14:10.279Z,4.53
2019-01-29T14:16:38.575Z,4.90
2019-01-29T14:19:06.627Z,4.40
2019-01-29T14:21:34.519Z,4.67
2019-01-29T14:24:02.424Z,4.67
2019-01-29T14:26:30.424Z,5.33
2019-01-29T14:28:58.926Z,5.10
2019-01-29T14:31:26.984Z,4.90
2019-01-29T14:33:55.005Z,4.10
2019-01-29T14:36:22.984Z,3.80
2019-01-29T14:39:11.205Z,4.67
2019-01-29T14:41:39.503Z,4.70
2019-01-29T14:44:08.887Z,4.70
2019-01-29T14:46:36.837Z,5.10
2019-01-29T14:49:04.985Z,4.37
2019-01-29T14:51:33.385Z,4.97
2019-01-29T14:54:01.281Z,5.00
2019-01-29T14:56:29.183Z,5.70
2019-01-29T14:58:57.183Z,4.97
2019-01-29T15:01:25.151Z,4.50
2019-01-29T15:03:53.441Z,5.40
2019-01-29T15:06:21.340Z,4.93
2019-01-29T15:08:49.641Z,4.60
2019-01-29T15:11:19.925Z,4.13
2019-01-29T15:13:50.989Z,4.33
2019-01-29T15:16:38.913Z,4.13
2019-01-29T15:19:12.842Z,3.83
2019-01-29T15:21:41.288Z,4.17
2019-01-29T15:24:09.337Z,4.40
2019-01-29T15:26:38.431Z,4.53
2019-01-29T15:29:06.398Z,4.27
2019-01-29T15:31:34.387Z,4.57
2019-01-29T15:34:02.252Z,4.43
2019-01-29T15:36:30.604Z,4.33
2019-01-29T15:38:58.533Z,4.83
2019-01-29T15:41:26.463Z,4.47
2019-01-29T15:43:54.307Z,4.47
2019-01-29T15:46:22.278Z,4.80
2019-01-29T15:48:50.395Z,4.80
2019-01-29T15:51:18.320Z,4.10
2019-01-29T15:53:46.201Z,4.90
2019-01-29T15:56:14.253Z,4.77
2019-01-29T15:58:42.528Z,4.47
2019-01-29T16:01:10.685Z,4.30
2019-01-29T16:03:44.751Z,4.60
2019-01-29T16:06:13.012Z,5.27
2019-01-29T16:08:40.995Z,4.73
2019-01-29T16:11:09.074Z,4.87
2019-01-29T16:13:42.664Z,4.30
2019-01-29T16:16:10.632Z,4.87
2019-01-29T16:18:38.639Z,5.37
2019-01-29T16:21:06.621Z,5.03
2019-01-29T16:23:37.262Z,5.47
2019-01-29T16:26:26.659Z,5.77
2019-01-29T16:28:54.550Z,5.53
2019-01-29T16:31:31.983Z,5.87
2019-01-29T16:34:00.311Z,6.00
2019-01-29T16:36:28.500Z,5.50
2019-01-29T16:39:01.472Z,5.80
2019-01-29T16:41:32.355Z,5.43
2019-01-29T16:44:03.264Z,5.50
2019-01-29T16:46:32.021Z,5.47
2019-01-29T16:48:59.974Z,4.60
2019-01-29T16:51:27.923Z,4.80
2019-01-29T16:54:07.569Z,4.63
2019-01-29T16:56:35.536Z,4.67
2019-01-29T16:59:03.879Z,4.70
2019-01-29T17:01:31.993Z,4.83
2019-01-29T17:04:00.811Z,5.23
2019-01-29T17:06:28.717Z,5.87
2019-01-29T17:09:16.439Z,4.40
2019-01-29T17:11:44.411Z,4.73
2019-01-29T17:14:24.542Z,5.57
2019-01-29T17:16:52.640Z,5.33
2019-01-29T17:19:20.592Z,6.10
2019-01-29T17:21:48.538Z,5.93
2019-01-29T17:24:17.317Z,6.43
2019-01-29T17:26:46.285Z,6.60
2019-01-29T17:29:14.582Z,5.60
2019-01-29T17:31:42.482Z,6.30
2019-01-29T17:34:10.391Z,6.63
2019-01-29T17:36:38.391Z,5.87
2019-01-29T17:39:07.724Z,5.80
2019-01-29T17:41:40.615Z,5.60
2019-01-29T17:44:14.425Z,5.17
2019-01-29T17:46:42.627Z,5.33
2019-01-29T17:49:11.555Z,5.83
2019-01-29T17:51:39.720Z,6.27
2019-01-29T17:54:07.892Z,5.67
2019-01-29T17:56:35.834Z,6.73
2019-01-29T17:59:03.746Z,7.07
2019-01-29T18:01:31.980Z,6.13
2019-01-29T18:03:59.977Z,6.63
2019-01-29T18:06:29.259Z,8.67
2019-01-29T18:08:57.182Z,5.97
2019-01-29T18:11:26.520Z,6.63
2019-01-29T18:13:54.450Z,7.17
2019-01-29T18:16:22.795Z,6.13
2019-01-29T18:18:50.630Z,6.50
2019-01-29T18:21:18.562Z,6.93
2019-01-29T18:23:46.497Z,7.00
2019-01-29T18:26:16.207Z,6.43
2019-01-29T18:28:44.163Z,5.60
2019-01-29T18:31:12.089Z,6.13
2019-01-29T18:33:41.632Z,7.00
2019-01-29T18:36:09.795Z,7.43
2019-01-29T18:38:37.857Z,6.27
2019-01-29T18:41:05.782Z,7.53
2019-01-29T18:43:34.244Z,7.20
2019-01-29T18:46:04.894Z,7.00
2019-01-29T18:48:32.424Z,5.90
2019-01-29T18:51:00.675Z,6.77
2019-01-29T18:53:29.910Z,6.67
2019-01-29T18:55:58.030Z,6.00
2019-01-29T18:58:26.421Z,6.20
2019-01-29T19:00:57.355Z,6.30
2019-01-29T19:03:26.548Z,6.53
2019-01-29T19:05:54.443Z,5.67
2019-01-29T19:08:22.456Z,5.83
2019-01-29T19:10:51.850Z,6.70
2019-01-29T19:13:20.661Z,5.67
2019-01-29T19:15:48.603Z,5.97
2019-01-29T19:18:16.482Z,5.60
2019-01-29T19:20:50.355Z,5.77
2019-01-29T19:23:18.561Z,5.70
2019-01-29T19:25:46.460Z,5.03
2019-01-29T19:28:21.711Z,6.00
2019-01-29T19:30:43.848Z,6.07
2019-01-29T19:33:11.757Z,5.70
2019-01-29T19:35:39.763Z,5.50
2019-01-29T19:38:07.797Z,5.93
2019-01-29T19:40:35.724Z,5.83
2019-01-29T19:43:03.623Z,5.67
2019-01-29T19:45:32.373Z,5.67
2019-01-29T19:48:00.671Z,5.97
2019-01-29T19:50:29.259Z,6.30
2019-01-29T19:52:59.142Z,6.67
2019-01-29T19:55:29.103Z,6.73
2019-01-29T19:57:57.059Z,6.60
2019-01-29T20:00:27.282Z,6.17
2019-01-29T20:02:57.034Z,7.43
2019-01-29T20:05:25.161Z,7.03
2019-01-29T20:07:53.128Z,13.50
2019-01-29T20:10:21.476Z,7.13
2019-01-29T20:12:50.491Z,6.47
2019-01-29T20:15:18.636Z,6.77
2019-01-29T20:17:47.230Z,7.40
2019-01-29T20:20:16.718Z,7.00
2019-01-29T20:22:44.648Z,6.50
2019-01-29T20:25:12.628Z,7.57
2019-01-29T20:27:40.571Z,7.23
2019-01-29T20:30:10.622Z,7.67
2019-01-29T20:32:38.480Z,7.03
2019-01-29T20:35:06.478Z,7.63
2019-01-29T20:37:35.516Z,7.63
2019-01-29T20:40:05.278Z,7.00
2019-01-29T20:42:34.439Z,6.93
2019-01-29T20:45:02.408Z,7.13
2019-01-29T20:47:30.483Z,7.20
2019-01-29T20:49:58.531Z,6.93
2019-01-29T20:52:26.827Z,7.00
2019-01-29T20:54:55.087Z,7.47
2019-01-29T20:57:23.149Z,7.90
2019-01-29T20:59:51.143Z,7.90
2019-01-29T21:02:19.108Z,7.77
2019-01-29T21:04:47.053Z,7.87
2019-01-29T21:07:14.951Z,7.00
2019-01-29T21:09:42.914Z,7.07
2019-01-29T21:12:11.087Z,6.70
2019-01-29T21:14:39.027Z,6.53
2019-01-29T21:17:06.900Z,7.07
2019-01-29T21:19:35.789Z,7.73
2019-01-29T21:22:03.724Z,6.83
2019-01-29T21:24:31.647Z,7.33
2019-01-29T21:26:59.752Z,6.87
2019-01-29T21:29:27.646Z,6.60
2019-01-29T21:31:55.610Z,7.70
2019-01-29T21:34:23.706Z,7.30
2019-01-29T21:36:51.660Z,8.57
2019-01-29T21:39:19.966Z,7.57
2019-01-29T21:41:47.955Z,7.10
2019-01-29T21:44:15.827Z,7.37
2019-01-29T21:46:43.723Z,7.20
2019-01-29T21:49:13.928Z,7.53
2019-01-29T21:51:41.991Z,7.43
2019-01-29T21:54:10.341Z,7.37
2019-01-29T21:56:38.782Z,7.20
2019-01-29T21:59:13.203Z,7.57
2019-01-29T22:01:36.322Z,7.10
2019-01-29T22:04:05.327Z,7.93
2019-01-29T22:06:33.688Z,7.50
2019-01-29T22:09:01.756Z,7.37
2019-01-29T22:11:31.834Z,7.10
2019-01-29T22:14:00.752Z,7.00
2019-01-29T22:16:46.166Z,7.83
2019-01-29T22:19:14.225Z,7.97
2019-01-29T22:21:44.767Z,7.20
2019-01-29T22:24:12.650Z,7.07
2019-01-29T22:26:40.677Z,6.73
2019-01-29T22:29:08.506Z,6.50
2019-01-29T22:31:38.831Z,6.50
2019-01-29T22:34:07.976Z,6.50
2019-01-29T22:36:36.805Z,6.53
2019-01-29T22:39:07.439Z,7.17
2019-01-29T22:41:36.206Z,6.40
2019-01-29T22:44:05.904Z,7.37
2019-01-29T22:46:34.146Z,7.10
2019-01-29T22:49:02.112Z,6.90
2019-01-29T22:51:30.165Z,7.10
2019-01-29T22:53:59.677Z,7.53
2019-01-29T22:56:27.746Z,7.13
2019-01-29T22:58:57.175Z,6.50
2019-01-29T23:01:27.425Z,6.90
2019-01-29T23:04:05.747Z,6.60
2019-01-29T23:06:53.072Z,6.97
2019-01-29T23:09:22.344Z,6.30
2019-01-29T23:11:51.511Z,7.10
2019-01-29T23:14:19.487Z,6.30
2019-01-29T23:16:47.460Z,6.43
2019-01-29T23:19:46.352Z,7.33
2019-01-29T23:22:14.728Z,6.67
2019-01-29T23:24:45.018Z,6.20
2019-01-29T23:27:14.797Z,7.23
2019-01-29T23:29:43.782Z,6.70
2019-01-29T23:32:11.964Z,6.93
2019-01-29T23:34:39.977Z,6.87
2019-01-29T23:37:09.941Z,6.77
2019-01-29T23:39:37.964Z,6.17
2019-01-29T23:42:07.390Z,6.67
2019-01-29T23:44:36.815Z,6.80
2019-01-29T23:47:04.892Z,6.47
2019-01-29T23:49:32.898Z,6.70
2019-01-29T23:52:02.359Z,6.23
2019-01-29T23:54:30.455Z,5.70
2019-01-29T23:56:58.601Z,6.33
2019-01-29T23:59:26.504Z,6.40
